sensor_id;sensor_type;location;lat;lon;timestamp;pressure;altitude;pressure_sealevel;temperature;humidity
49585;BME280;35491;49.142;9.210;2023-03-22T03:32:43;99615.22;;;9.17;74.95
49585;BME280;35491;49.142;9.210;2023-03-22T03:35:15;99613.09;;;9.21;74.78
49585;BME280;35491;49.142;9.210;2023-03-22T03:36:28;99616.34;;;9.25;74.60
49585;BME280;35491;49.142;9.210;2023-03-22T03:37:34;99614.22;;;9.28;74.37
49585;BME280;35491;49.142;9.210;2023-03-22T03:38:40;99624.19;;;9.26;74.42
49585;BME280;35491;49.142;9.210;2023-03-22T03:41:15;99619.13;;;9.23;74.80
49585;BME280;35491;49.142;9.210;2023-03-22T03:42:20;99625.34;;;9.24;75.09
49585;BME280;35491;49.142;9.210;2023-03-22T03:43:24;99616.03;;;9.28;74.22
49585;BME280;35491;49.142;9.210;2023-03-22T03:44:28;99613.25;;;9.29;74.34
49585;BME280;35491;49.142;9.210;2023-03-22T03:45:36;99617.88;;;9.27;74.46
49585;BME280;35491;49.142;9.210;2023-03-22T03:46:43;99612.09;;;9.32;74.46
49585;BME280;35491;49.142;9.210;2023-03-22T03:50:51;99615.66;;;9.50;73.57
49585;BME280;35491;49.142;9.210;2023-03-22T03:51:58;99610.69;;;9.56;73.40
49585;BME280;35491;49.142;9.210;2023-03-22T03:53:13;99616.19;;;9.54;73.53
49585;BME280;35491;49.142;9.210;2023-03-22T03:54:17;99616.91;;;9.56;73.31
49585;BME280;35491;49.142;9.210;2023-03-22T03:55:27;99609.59;;;9.58;73.36
49585;BME280;35491;49.142;9.210;2023-03-22T03:56:34;99606.75;;;9.60;73.18
49585;BME280;35491;49.142;9.210;2023-03-22T03:57:36;99608.13;;;9.64;72.88
49585;BME280;35491;49.142;9.210;2023-03-22T03:58:40;99608.81;;;9.66;72.78
49585;BME280;35491;49.142;9.210;2023-03-22T04:00:48;99611.66;;;9.64;72.80
49585;BME280;35491;49.142;9.210;2023-03-22T04:03:35;99602.34;;;9.68;72.45
49585;BME280;35491;49.142;9.210;2023-03-22T04:04:39;99597.56;;;9.72;72.28
49585;BME280;35491;49.142;9.210;2023-03-22T04:05:55;99604.56;;;9.73;72.42
49585;BME280;35491;49.142;9.210;2023-03-22T04:06:59;99605.13;;;9.77;72.08
49585;BME280;35491;49.142;9.210;2023-03-22T04:09:34;99596.50;;;9.83;71.86
49585;BME280;35491;49.142;9.210;2023-03-22T04:10:38;99597.31;;;9.83;71.44
49585;BME280;35491;49.142;9.210;2023-03-22T04:11:44;99602.66;;;9.83;71.66
49585;BME280;35491;49.142;9.210;2023-03-22T04:12:48;99600.00;;;9.83;71.46
49585;BME280;35491;49.142;9.210;2023-03-22T04:15:09;99600.97;;;9.82;71.45
49585;BME280;35491;49.142;9.210;2023-03-22T04:16:13;99602.28;;;9.78;71.73
49585;BME280;35491;49.142;9.210;2023-03-22T04:18:48;99595.88;;;9.71;72.04
49585;BME280;35491;49.142;9.210;2023-03-22T04:19:52;99604.56;;;9.73;71.76
49585;BME280;35491;49.142;9.210;2023-03-22T04:22:29;99597.78;;;9.79;71.42
49585;BME280;35491;49.142;9.210;2023-03-22T04:23:34;99597.78;;;9.79;71.70
49585;BME280;35491;49.142;9.210;2023-03-22T04:29:08;99584.69;;;9.86;71.23
49585;BME280;35491;49.142;9.210;2023-03-22T04:30:24;99582.69;;;9.88;71.25
49585;BME280;35491;49.142;9.210;2023-03-22T04:31:30;99587.78;;;9.81;71.21
49585;BME280;35491;49.142;9.210;2023-03-22T04:32:32;99587.09;;;9.79;71.61
49585;BME280;35491;49.142;9.210;2023-03-22T04:33:38;99586.00;;;9.81;71.42
49585;BME280;35491;49.142;9.210;2023-03-22T04:36:10;99581.56;;;9.72;71.43
49585;BME280;35491;49.142;9.210;2023-03-22T04:37:15;99584.09;;;9.64;71.48
49585;BME280;35491;49.142;9.210;2023-03-22T04:38:26;99586.41;;;9.59;71.48
49585;BME280;35491;49.142;9.210;2023-03-22T04:41:13;99582.56;;;9.43;71.98
49585;BME280;35491;49.142;9.210;2023-03-22T04:42:16;99581.16;;;9.39;72.33
49585;BME280;35491;49.142;9.210;2023-03-22T04:44:50;99585.44;;;9.32;72.67
49585;BME280;35491;49.142;9.210;2023-03-22T04:45:54;99578.69;;;9.28;72.99
49585;BME280;35491;49.142;9.210;2023-03-22T04:48:31;99572.38;;;9.29;72.76
49585;BME280;35491;49.142;9.210;2023-03-22T04:49:35;99570.41;;;9.31;73.07
49585;BME280;35491;49.142;9.210;2023-03-22T04:50:37;99571.09;;;9.33;72.83
49585;BME280;35491;49.142;9.210;2023-03-22T04:51:42;99570.13;;;9.34;72.81
49585;BME280;35491;49.142;9.210;2023-03-22T04:52:49;99571.81;;;9.35;72.73
49585;BME280;35491;49.142;9.210;2023-03-22T04:53:55;99567.81;;;9.39;72.47
49585;BME280;35491;49.142;9.210;2023-03-22T04:56:20;99559.63;;;9.50;72.12
49585;BME280;35491;49.142;9.210;2023-03-22T04:58:47;99551.34;;;9.54;71.92
49585;BME280;35491;49.142;9.210;2023-03-22T04:59:49;99558.31;;;9.55;71.69
49585;BME280;35491;49.142;9.210;2023-03-22T05:00:54;99553.31;;;9.51;71.82
49585;BME280;35491;49.142;9.210;2023-03-22T05:01:55;99552.16;;;9.54;71.69
49585;BME280;35491;49.142;9.210;2023-03-22T05:03:01;99555.53;;;9.56;71.48
49585;BME280;35491;49.142;9.210;2023-03-22T05:04:03;99552.09;;;9.64;71.32
49585;BME280;35491;49.142;9.210;2023-03-22T05:05:07;99558.31;;;9.55;71.10
49585;BME280;35491;49.142;9.210;2023-03-22T05:06:09;99552.69;;;9.58;71.06
49585;BME280;35491;49.142;9.210;2023-03-22T05:07:12;99553.91;;;9.63;70.94
49585;BME280;35491;49.142;9.210;2023-03-22T05:08:16;99560.25;;;9.62;70.97
49585;BME280;35491;49.142;9.210;2023-03-22T05:09:22;99556.06;;;9.60;70.71
49585;BME280;35491;49.142;9.210;2023-03-22T05:10:26;99552.53;;;9.59;70.98
49585;BME280;35491;49.142;9.210;2023-03-22T05:11:30;99557.03;;;9.59;70.68
49585;BME280;35491;49.142;9.210;2023-03-22T05:12:32;99556.34;;;9.57;70.75
49585;BME280;35491;49.142;9.210;2023-03-22T05:13:36;99556.50;;;9.55;70.82
49585;BME280;35491;49.142;9.210;2023-03-22T05:16:09;99552.44;;;9.51;71.15
49585;BME280;35491;49.142;9.210;2023-03-22T05:17:13;99554.34;;;9.41;71.37
49585;BME280;35491;49.142;9.210;2023-03-22T05:18:16;99548.72;;;9.44;71.52
49585;BME280;35491;49.142;9.210;2023-03-22T05:19:20;99556.72;;;9.44;71.11
49585;BME280;35491;49.142;9.210;2023-03-22T05:20:24;99546.03;;;9.44;71.18
49585;BME280;35491;49.142;9.210;2023-03-22T05:21:28;99550.56;;;9.43;71.29
49585;BME280;35491;49.142;9.210;2023-03-22T05:22:36;99542.91;;;9.48;70.95
49585;BME280;35491;49.142;9.210;2023-03-22T05:23:53;99541.31;;;9.38;71.59
49585;BME280;35491;49.142;9.210;2023-03-22T05:24:58;99553.78;;;9.37;71.32
49585;BME280;35491;49.142;9.210;2023-03-22T05:26:01;99548.78;;;9.34;71.59
49585;BME280;35491;49.142;9.210;2023-03-22T05:27:07;99554.50;;;9.39;71.11
49585;BME280;35491;49.142;9.210;2023-03-22T05:28:11;99553.13;;;9.35;71.39
49585;BME280;35491;49.142;9.210;2023-03-22T05:29:15;99550.06;;;9.30;71.49
49585;BME280;35491;49.142;9.210;2023-03-22T05:30:19;99555.38;;;9.30;71.46
49585;BME280;35491;49.142;9.210;2023-03-22T05:31:23;99555.38;;;9.30;71.53
49585;BME280;35491;49.142;9.210;2023-03-22T05:32:28;99556.00;;;9.24;71.86
49585;BME280;35491;49.142;9.210;2023-03-22T05:33:29;99554.84;;;9.26;71.61
49585;BME280;35491;49.142;9.210;2023-03-22T05:34:34;99565.81;;;9.23;71.72
49585;BME280;35491;49.142;9.210;2023-03-22T05:35:42;99565.97;;;9.21;71.81
49585;BME280;35491;49.142;9.210;2023-03-22T05:36:46;99573.09;;;9.21;71.70
49585;BME280;35491;49.142;9.210;2023-03-22T05:37:51;99570.34;;;9.13;72.18
49585;BME280;35491;49.142;9.210;2023-03-22T05:38:55;99573.59;;;9.07;72.28
49585;BME280;35491;49.142;9.210;2023-03-22T05:39:59;99578.94;;;9.07;72.21
49585;BME280;35491;49.142;9.210;2023-03-22T05:41:05;99573.44;;;9.08;72.38
49585;BME280;35491;49.142;9.210;2023-03-22T05:42:10;99579.66;;;8.99;72.66
49585;BME280;35491;49.142;9.210;2023-03-22T05:43:14;99580.78;;;8.96;72.70
49585;BME280;35491;49.142;9.210;2023-03-22T05:44:15;99578.81;;;8.98;72.75
49585;BME280;35491;49.142;9.210;2023-03-22T05:45:19;99583.63;;;8.95;73.05
49585;BME280;35491;49.142;9.210;2023-03-22T05:46:21;99578.66;;;9.00;72.91
49585;BME280;35491;49.142;9.210;2023-03-22T05:47:25;99581.34;;;9.00;72.74
49585;BME280;35491;49.142;9.210;2023-03-22T05:49:38;99574.09;;;8.92;73.29
49585;BME280;35491;49.142;9.210;2023-03-22T05:50:40;99574.19;;;9.00;73.00
49585;BME280;35491;49.142;9.210;2023-03-22T05:51:44;99574.59;;;9.05;72.66
49585;BME280;35491;49.142;9.210;2023-03-22T05:52:49;99575.44;;;9.06;72.78
49585;BME280;35491;49.142;9.210;2023-03-22T05:53:55;99573.75;;;9.05;72.42
49585;BME280;35491;49.142;9.210;2023-03-22T05:54:58;99575.88;;;9.01;72.84
49585;BME280;35491;49.142;9.210;2023-03-22T05:56:03;99576.09;;;9.08;72.84
49585;BME280;35491;49.142;9.210;2023-03-22T05:57:09;99573.44;;;9.08;72.69
49585;BME280;35491;49.142;9.210;2023-03-22T05:58:13;99581.31;;;9.10;72.41
49585;BME280;35491;49.142;9.210;2023-03-22T05:59:18;99575.13;;;9.09;72.31
49585;BME280;35491;49.142;9.210;2023-03-22T06:00:33;99580.03;;;9.14;72.23
49585;BME280;35491;49.142;9.210;2023-03-22T06:01:40;99586.66;;;9.10;72.66
49585;BME280;35491;49.142;9.210;2023-03-22T06:05:44;99588.88;;;9.14;72.35
49585;BME280;35491;49.142;9.210;2023-03-22T06:06:50;99589.53;;;9.16;72.27
49585;BME280;35491;49.142;9.210;2023-03-22T06:07:54;99589.81;;;9.23;71.94
49585;BME280;35491;49.142;9.210;2023-03-22T06:08:58;99584.63;;;9.21;72.17
49585;BME280;35491;49.142;9.210;2023-03-22T06:13:04;99598.06;;;9.30;71.49
49585;BME280;35491;49.142;9.210;2023-03-22T06:14:08;99593.88;;;9.27;71.64
49585;BME280;35491;49.142;9.210;2023-03-22T06:16:39;99587.09;;;9.33;71.63
49585;BME280;35491;49.142;9.210;2023-03-22T06:19:11;99591.84;;;9.39;71.25
49585;BME280;35491;49.142;9.210;2023-03-22T06:20:16;99592.28;;;9.34;71.49
49585;BME280;35491;49.142;9.210;2023-03-22T06:21:19;99587.19;;;9.41;70.92
49585;BME280;35491;49.142;9.210;2023-03-22T06:22:35;99587.03;;;9.43;70.96
49585;BME280;35491;49.142;9.210;2023-03-22T06:23:39;99595.00;;;9.52;70.50
49585;BME280;35491;49.142;9.210;2023-03-22T06:26:11;99591.03;;;9.57;70.12
49585;BME280;35491;49.142;9.210;2023-03-22T06:37:49;99599.22;;;9.73;69.39
49585;BME280;35491;49.142;9.210;2023-03-22T06:38:53;99594.19;;;9.70;69.27
49585;BME280;35491;49.142;9.210;2023-03-22T06:41:26;99598.56;;;9.89;68.88
49585;BME280;35491;49.142;9.210;2023-03-22T07:01:49;99594.28;;;10.51;65.03
49585;BME280;35491;49.142;9.210;2023-03-22T07:02:53;99597.44;;;10.46;65.23
49585;BME280;35491;49.142;9.210;2023-03-22T07:03:58;99598.34;;;10.55;65.73
49585;BME280;35491;49.142;9.210;2023-03-22T07:04:59;99605.38;;;10.56;65.22
49585;BME280;35491;49.142;9.210;2023-03-22T07:06:06;99597.34;;;10.56;64.84
49585;BME280;35491;49.142;9.210;2023-03-22T07:08:30;99593.75;;;10.65;64.52
49585;BME280;35491;49.142;9.210;2023-03-22T07:09:34;99594.72;;;10.64;64.63
49585;BME280;35491;49.142;9.210;2023-03-22T07:10:36;99592.06;;;10.64;64.26
49585;BME280;35491;49.142;9.210;2023-03-22T07:11:42;99600.25;;;10.63;64.23
49585;BME280;35491;49.142;9.210;2023-03-22T07:12:43;99594.78;;;10.72;64.25
49585;BME280;35491;49.142;9.210;2023-03-22T07:13:49;99588.81;;;10.79;63.86
49585;BME280;35491;49.142;9.210;2023-03-22T07:14:53;99591.16;;;10.82;63.58
49585;BME280;35491;49.142;9.210;2023-03-22T07:15:57;99594.16;;;10.79;63.31
49585;BME280;35491;49.142;9.210;2023-03-22T07:17:01;99596.47;;;10.73;63.55
49585;BME280;35491;49.142;9.210;2023-03-22T07:18:05;99583.50;;;10.87;63.42
49585;BME280;35491;49.142;9.210;2023-03-22T07:19:07;99591.91;;;10.92;63.07
49585;BME280;35491;49.142;9.210;2023-03-22T07:20:11;99589.06;;;10.93;63.30
49585;BME280;35491;49.142;9.210;2023-03-22T07:22:37;99592.91;;;10.91;62.94
49585;BME280;35491;49.142;9.210;2023-03-22T07:23:41;99590.44;;;10.98;62.88
49585;BME280;35491;49.142;9.210;2023-03-22T07:24:42;99596.66;;;11.06;62.66
49585;BME280;35491;49.142;9.210;2023-03-22T07:27:17;99589.47;;;11.07;62.63
49585;BME280;35491;49.142;9.210;2023-03-22T07:29:54;99584.50;;;11.20;62.15
49585;BME280;35491;49.142;9.210;2023-03-22T07:31:00;99587.38;;;11.27;61.92
49585;BME280;35491;49.142;9.210;2023-03-22T07:33:37;99590.59;;;11.39;61.52
49585;BME280;35491;49.142;9.210;2023-03-22T07:34:44;99591.16;;;11.43;61.36
49585;BME280;35491;49.142;9.210;2023-03-22T07:35:52;99595.34;;;11.45;61.15
49585;BME280;35491;49.142;9.210;2023-03-22T07:40:45;99602.63;;;11.69;60.53
49585;BME280;35491;49.142;9.210;2023-03-22T07:41:56;99601.63;;;11.70;60.13
49585;BME280;35491;49.142;9.210;2023-03-22T07:42:57;99598.09;;;11.70;60.09
49585;BME280;35491;49.142;9.210;2023-03-22T07:44:03;99593.59;;;11.70;60.29
49585;BME280;35491;49.142;9.210;2023-03-22T07:45:09;99588.91;;;11.81;60.34
49585;BME280;35491;49.142;9.210;2023-03-22T07:46:35;99592.13;;;11.93;59.76
49585;BME280;35491;49.142;9.210;2023-03-22T07:47:39;99590.78;;;11.97;59.73
49585;BME280;35491;49.142;9.210;2023-03-22T07:48:43;99593.44;;;11.97;59.38
49585;BME280;35491;49.142;9.210;2023-03-22T07:49:49;99592.94;;;11.93;59.22
49585;BME280;35491;49.142;9.210;2023-03-22T07:50:59;99592.63;;;11.96;59.23
49585;BME280;35491;49.142;9.210;2023-03-22T07:52:10;99595.53;;;12.11;59.11
49585;BME280;35491;49.142;9.210;2023-03-22T07:53:36;99592.69;;;12.21;58.74
49585;BME280;35491;49.142;9.210;2023-03-22T07:54:41;99581.28;;;12.19;58.44
49585;BME280;35491;49.142;9.210;2023-03-22T07:55:43;99594.72;;;12.27;58.50
49585;BME280;35491;49.142;9.210;2023-03-22T07:56:47;99592.69;;;12.29;58.31
49585;BME280;35491;49.142;9.210;2023-03-22T07:59:16;99596.03;;;12.48;57.96
49585;BME280;35491;49.142;9.210;2023-03-22T08:00:38;99589.50;;;12.59;57.81
49585;BME280;35491;49.142;9.210;2023-03-22T08:03:27;99590.69;;;12.64;57.67
49585;BME280;35491;49.142;9.210;2023-03-22T08:04:50;99587.97;;;12.73;57.69
49585;BME280;35491;49.142;9.210;2023-03-22T08:06:02;99583.44;;;12.73;57.34
49585;BME280;35491;49.142;9.210;2023-03-22T08:07:39;99583.28;;;12.75;57.44
49585;BME280;35491;49.142;9.210;2023-03-22T08:08:54;99588.75;;;12.90;56.87
49585;BME280;35491;49.142;9.210;2023-03-22T08:10:16;99586.22;;;13.05;56.69
49585;BME280;35491;49.142;9.210;2023-03-22T08:14:43;99589.81;;;13.37;55.93
49585;BME280;35491;49.142;9.210;2023-03-22T08:16:09;99585.09;;;13.47;55.43
49585;BME280;35491;49.142;9.210;2023-03-22T08:20:35;99585.91;;;13.79;54.86
49585;BME280;35491;49.142;9.210;2023-03-22T08:29:33;99581.56;;;14.71;52.65
49585;BME280;35491;49.142;9.210;2023-03-22T08:33:54;99575.44;;;14.92;52.56
49585;BME280;35491;49.142;9.210;2023-03-22T08:54:34;99575.09;;;15.10;51.27
49585;BME280;35491;49.142;9.210;2023-03-22T08:55:58;99567.63;;;15.27;50.61
49585;BME280;35491;49.142;9.210;2023-03-22T09:02:08;99565.59;;;15.15;50.48
49585;BME280;35491;49.142;9.210;2023-03-22T09:03:48;99561.25;;;15.28;50.26
49585;BME280;35491;49.142;9.210;2023-03-22T09:05:40;99548.59;;;15.44;49.73
49585;BME280;35491;49.142;9.210;2023-03-22T09:09:04;99543.88;;;15.68;48.90
49585;BME280;35491;49.142;9.210;2023-03-22T09:48:23;99515.72;;;17.41;42.62
49585;BME280;35491;49.142;9.210;2023-03-22T09:49:32;99514.94;;;16.98;43.05
49585;BME280;35491;49.142;9.210;2023-03-22T09:55:16;99514.88;;;17.34;42.97
49585;BME280;35491;49.142;9.210;2023-03-22T09:56:19;99515.41;;;17.15;43.01
49585;BME280;35491;49.142;9.210;2023-03-22T10:39:03;99460.69;;;18.63;40.68
49585;BME280;35491;49.142;9.210;2023-03-22T10:40:09;99465.91;;;18.51;40.58
49585;BME280;35491;49.142;9.210;2023-03-22T10:41:17;99459.66;;;18.64;39.91
49585;BME280;35491;49.142;9.210;2023-03-22T10:42:22;99453.13;;;18.85;39.71
49585;BME280;35491;49.142;9.210;2023-03-22T10:43:27;99462.63;;;19.14;39.76
49585;BME280;35491;49.142;9.210;2023-03-22T10:44:33;99444.41;;;19.35;39.27
49585;BME280;35491;49.142;9.210;2023-03-22T10:45:38;99443.75;;;19.40;38.82
49585;BME280;35491;49.142;9.210;2023-03-22T10:46:42;99448.53;;;19.44;38.89
49585;BME280;35491;49.142;9.210;2023-03-22T10:47:49;99451.91;;;19.33;38.19
49585;BME280;35491;49.142;9.210;2023-03-22T10:49:00;99453.03;;;19.57;38.28
49585;BME280;35491;49.142;9.210;2023-03-22T10:55:28;99443.88;;;19.13;39.22
49585;BME280;35491;49.142;9.210;2023-03-22T10:56:56;99446.63;;;19.06;38.95
49585;BME280;35491;49.142;9.210;2023-03-22T11:02:30;99432.81;;;18.62;38.50
49585;BME280;35491;49.142;9.210;2023-03-22T11:05:46;99436.63;;;19.07;38.15
49585;BME280;35491;49.142;9.210;2023-03-22T11:07:25;99433.50;;;19.03;37.95
49585;BME280;35491;49.142;9.210;2023-03-22T11:09:10;99429.50;;;19.12;38.32
49585;BME280;35491;49.142;9.210;2023-03-22T11:10:32;99430.31;;;19.13;37.63
49585;BME280;35491;49.142;9.210;2023-03-22T11:24:26;99431.59;;;18.24;38.82
49585;BME280;35491;49.142;9.210;2023-03-22T11:32:13;99418.69;;;18.40;38.00
49585;BME280;35491;49.142;9.210;2023-03-22T11:33:47;99413.13;;;18.21;38.78
49585;BME280;35491;49.142;9.210;2023-03-22T11:40:00;99409.09;;;18.37;38.65
49585;BME280;35491;49.142;9.210;2023-03-22T11:41:25;99400.56;;;18.47;38.39
49585;BME280;35491;49.142;9.210;2023-03-22T11:42:42;99409.94;;;18.45;38.91
49585;BME280;35491;49.142;9.210;2023-03-22T11:45:31;99409.09;;;18.37;38.04
49585;BME280;35491;49.142;9.210;2023-03-22T11:46:43;99401.84;;;18.38;38.16
49585;BME280;35491;49.142;9.210;2023-03-22T12:06:35;99379.31;;;18.51;38.32
49585;BME280;35491;49.142;9.210;2023-03-22T12:12:49;99362.06;;;18.91;38.00
49585;BME280;35491;49.142;9.210;2023-03-22T12:20:43;99352.09;;;18.98;37.70
49585;BME280;35491;49.142;9.210;2023-03-22T12:23:19;99370.19;;;18.91;34.67
49585;BME280;35491;49.142;9.210;2023-03-22T12:36:03;99347.56;;;18.78;35.18
49585;BME280;35491;49.142;9.210;2023-03-22T13:11:43;99308.19;;;19.21;35.46
49585;BME280;35491;49.142;9.210;2023-03-22T13:13:21;99312.34;;;19.24;35.25
49585;BME280;35491;49.142;9.210;2023-03-22T13:16:46;99308.78;;;19.23;35.51
49585;BME280;35491;49.142;9.210;2023-03-22T13:17:56;99308.84;;;19.16;35.29
49585;BME280;35491;49.142;9.210;2023-03-22T13:19:35;99307.06;;;19.29;35.36
49585;BME280;35491;49.142;9.210;2023-03-22T13:28:47;99293.56;;;19.47;35.08
49585;BME280;35491;49.142;9.210;2023-03-22T13:30:27;99296.84;;;19.56;34.45
49585;BME280;35491;49.142;9.210;2023-03-22T13:40:52;99269.06;;;19.61;33.95
49585;BME280;35491;49.142;9.210;2023-03-22T13:44:18;99264.25;;;19.88;34.07
49585;BME280;35491;49.142;9.210;2023-03-22T13:58:33;99249.88;;;19.62;33.73
49585;BME280;35491;49.142;9.210;2023-03-22T14:01:19;99257.94;;;19.69;33.77
49585;BME280;35491;49.142;9.210;2023-03-22T14:02:27;99245.75;;;19.78;33.57
49585;BME280;35491;49.142;9.210;2023-03-22T14:03:34;99246.47;;;19.92;33.33
49585;BME280;35491;49.142;9.210;2023-03-22T14:04:43;99244.75;;;19.73;33.22
49585;BME280;35491;49.142;9.210;2023-03-22T14:07:27;99241.44;;;19.71;33.84
49585;BME280;35491;49.142;9.210;2023-03-22T14:08:37;99245.50;;;19.80;33.70
49585;BME280;35491;49.142;9.210;2023-03-22T14:09:47;99238.41;;;19.86;33.98
49585;BME280;35491;49.142;9.210;2023-03-22T14:13:10;99232.91;;;19.92;33.33
49585;BME280;35491;49.142;9.210;2023-03-22T14:32:28;99221.63;;;20.45;32.45
49585;BME280;35491;49.142;9.210;2023-03-22T14:33:41;99222.22;;;20.47;32.67
49585;BME280;35491;49.142;9.210;2023-03-22T14:34:46;99218.97;;;20.38;33.11
49585;BME280;35491;49.142;9.210;2023-03-22T14:35:56;99220.22;;;20.23;33.39
49585;BME280;35491;49.142;9.210;2023-03-22T14:37:01;99222.09;;;20.23;33.34
49585;BME280;35491;49.142;9.210;2023-03-22T14:38:07;99219.06;;;20.31;33.20
49585;BME280;35491;49.142;9.210;2023-03-22T14:39:13;99214.41;;;20.38;32.97
49585;BME280;35491;49.142;9.210;2023-03-22T14:40:27;99215.63;;;20.24;32.87
49585;BME280;35491;49.142;9.210;2023-03-22T14:41:36;99212.25;;;20.10;32.44
49585;BME280;35491;49.142;9.210;2023-03-22T14:42:53;99211.22;;;19.92;32.79
49585;BME280;35491;49.142;9.210;2023-03-22T14:43:59;99215.81;;;19.92;33.07
49585;BME280;35491;49.142;9.210;2023-03-22T14:45:05;99215.72;;;19.99;32.73
49585;BME280;35491;49.142;9.210;2023-03-22T14:46:24;99209.16;;;20.06;32.52
49585;BME280;35491;49.142;9.210;2023-03-22T14:47:40;99212.78;;;20.00;32.13
49585;BME280;35491;49.142;9.210;2023-03-22T14:49:03;99210.09;;;20.00;32.45
49585;BME280;35491;49.142;9.210;2023-03-22T14:50:12;99205.72;;;19.99;32.73
49585;BME280;35491;49.142;9.210;2023-03-22T14:53:27;99200.38;;;20.23;32.87
49585;BME280;35491;49.142;9.210;2023-03-22T14:54:51;99206.22;;;20.08;32.89
49585;BME280;35491;49.142;9.210;2023-03-22T15:14:22;99188.66;;;19.55;32.85
49585;BME280;35491;49.142;9.210;2023-03-22T15:15:58;99188.66;;;19.55;33.25
49585;BME280;35491;49.142;9.210;2023-03-22T15:41:37;99178.16;;;18.96;35.73
49585;BME280;35491;49.142;9.210;2023-03-22T15:42:45;99187.56;;;18.86;36.03
49585;BME280;35491;49.142;9.210;2023-03-22T15:43:57;99194.66;;;18.88;36.10
49585;BME280;35491;49.142;9.210;2023-03-22T15:45:04;99179.84;;;18.90;35.89
49585;BME280;35491;49.142;9.210;2023-03-22T15:47:08;99183.97;;;18.99;35.99
49585;BME280;35491;49.142;9.210;2023-03-22T15:50:02;99183.72;;;19.01;36.19
49585;BME280;35491;49.142;9.210;2023-03-22T15:51:46;99181.13;;;18.88;36.60
49585;BME280;35491;49.142;9.210;2023-03-22T15:55:26;99178.59;;;18.86;36.48
49585;BME280;35491;49.142;9.210;2023-03-22T16:03:33;99182.03;;;18.75;37.13
49585;BME280;35491;49.142;9.210;2023-03-22T16:16:24;99194.19;;;18.65;37.31
49585;BME280;35491;49.142;9.210;2023-03-22T16:24:47;99190.56;;;18.78;37.10
49585;BME280;35491;49.142;9.210;2023-03-22T16:35:40;99196.09;;;18.58;37.58
49585;BME280;35491;49.142;9.210;2023-03-22T16:37:15;99186.09;;;18.59;37.48
49585;BME280;35491;49.142;9.210;2023-03-22T16:41:00;99194.50;;;18.50;37.85
49585;BME280;35491;49.142;9.210;2023-03-22T16:42:22;99194.03;;;18.53;37.85
49585;BME280;35491;49.142;9.210;2023-03-22T16:43:27;99191.13;;;18.55;37.94
49585;BME280;35491;49.142;9.210;2023-03-22T16:47:57;99194.84;;;18.61;37.94
49585;BME280;35491;49.142;9.210;2023-03-22T16:49:59;99191.94;;;18.55;38.10
49585;BME280;35491;49.142;9.210;2023-03-22T16:53:03;99189.50;;;18.47;38.63
49585;BME280;35491;49.142;9.210;2023-03-22T16:54:35;99193.88;;;18.48;38.59
49585;BME280;35491;49.142;9.210;2023-03-22T17:39:00;99225.09;;;17.99;40.18
49585;BME280;35491;49.142;9.210;2023-03-22T17:40:12;99226.97;;;17.91;40.38
49585;BME280;35491;49.142;9.210;2023-03-22T17:41:14;99231.75;;;17.89;40.32
49585;BME280;35491;49.142;9.210;2023-03-22T17:42:18;99228.81;;;17.91;40.31
49585;BME280;35491;49.142;9.210;2023-03-22T17:43:31;99228.00;;;17.90;40.31
49585;BME280;35491;49.142;9.210;2023-03-22T17:46:22;99234.22;;;17.91;40.16
49585;BME280;35491;49.142;9.210;2023-03-22T18:24:21;99249.50;;;17.25;42.71
49585;BME280;35491;49.142;9.210;2023-03-22T18:25:26;99253.28;;;17.24;42.74
49585;BME280;35491;49.142;9.210;2023-03-22T18:27:38;99256.78;;;17.24;42.93
49585;BME280;35491;49.142;9.210;2023-03-22T18:35:14;99260.13;;;17.20;43.07
49585;BME280;35491;49.142;9.210;2023-03-22T18:36:40;99250.56;;;17.17;43.06
49585;BME280;35491;49.142;9.210;2023-03-22T19:15:43;99262.59;;;16.39;45.48
49585;BME280;35491;49.142;9.210;2023-03-22T19:16:57;99264.88;;;16.35;45.34
49585;BME280;35491;49.142;9.210;2023-03-22T19:18:10;99258.88;;;16.33;45.44
49585;BME280;35491;49.142;9.210;2023-03-22T19:19:18;99261.13;;;16.30;45.83
49585;BME280;35491;49.142;9.210;2023-03-22T19:22:22;99255.31;;;16.26;45.98
49585;BME280;35491;49.142;9.210;2023-03-22T19:23:26;99249.09;;;16.26;45.90
49585;BME280;35491;49.142;9.210;2023-03-22T19:25:45;99252.41;;;16.21;45.88
49585;BME280;35491;49.142;9.210;2023-03-22T19:26:49;99255.09;;;16.21;46.11
49585;BME280;35491;49.142;9.210;2023-03-22T19:27:53;99252.78;;;16.18;46.04
49585;BME280;35491;49.142;9.210;2023-03-22T19:29:02;99245.28;;;16.13;46.52
49585;BME280;35491;49.142;9.210;2023-03-22T19:30:10;99252.75;;;16.11;46.61
49585;BME280;35491;49.142;9.210;2023-03-22T19:31:15;99252.97;;;16.10;46.64
49585;BME280;35491;49.142;9.210;2023-03-22T19:32:19;99257.28;;;16.04;46.42
49585;BME280;35491;49.142;9.210;2023-03-22T19:33:27;99250.03;;;16.04;46.54
49585;BME280;35491;49.142;9.210;2023-03-22T19:34:42;99251.72;;;16.05;46.66
49585;BME280;35491;49.142;9.210;2023-03-22T19:36:02;99256.47;;;16.03;46.21
49585;BME280;35491;49.142;9.210;2023-03-22T19:43:57;99253.69;;;15.90;46.82
49585;BME280;35491;49.142;9.210;2023-03-22T19:45:01;99248.50;;;15.88;47.15
49585;BME280;35491;49.142;9.210;2023-03-22T19:46:04;99243.94;;;15.89;47.07
49585;BME280;35491;49.142;9.210;2023-03-22T19:47:18;99249.97;;;15.91;47.00
49585;BME280;35491;49.142;9.210;2023-03-22T20:18:27;99241.91;;;15.34;48.81
49585;BME280;35491;49.142;9.210;2023-03-22T20:19:31;99235.25;;;15.30;49.20
49585;BME280;35491;49.142;9.210;2023-03-22T20:20:33;99239.59;;;15.31;49.28
49585;BME280;35491;49.142;9.210;2023-03-22T20:21:42;99237.31;;;15.28;49.24
49585;BME280;35491;49.142;9.210;2023-03-22T20:22:46;99233.16;;;15.25;49.46
49585;BME280;35491;49.142;9.210;2023-03-22T20:23:53;99241.81;;;15.21;49.58
49585;BME280;35491;49.142;9.210;2023-03-22T20:26:26;99237.31;;;15.06;50.13
49585;BME280;35491;49.142;9.210;2023-03-22T20:27:32;99242.72;;;15.06;50.12
49585;BME280;35491;49.142;9.210;2023-03-22T20:28:34;99240.41;;;15.03;49.90
49585;BME280;35491;49.142;9.210;2023-03-22T20:29:41;99243.44;;;14.93;50.49
49585;BME280;35491;49.142;9.210;2023-03-22T20:30:45;99251.22;;;14.88;50.51